Time;durP1;ratioP1;P1;durP2;ratioP2;P2;SDS_P1;SDS_P2;PMS_P1;PMS_P2;Temp;Humidity;BMP_temperature;BMP_pressure;BME280_temperature;BME280_humidity;BME280_pressure;Samples;Min_cycle;Max_cycle;Signal;HPM_P1;HPM_P2
2021/11/27 00:01:03;;;;;;;5.68;3.75;;;4.00;99.90;;;;;;5036495;28;20029;-74
2021/11/27 00:03:28;;;;;;;3.65;2.95;;;4.00;99.90;;;;;;5036448;28;20036;-74
2021/11/27 00:05:55;;;;;;;7.50;3.63;;;4.10;99.90;;;;;;5035914;28;20017;-74
2021/11/27 00:08:21;;;;;;;4.85;3.22;;;4.10;99.90;;;;;;5035734;28;20432;-74
2021/11/27 00:10:51;;;;;;;4.32;3.70;;;4.20;99.90;;;;;;5035971;28;20116;-74
2021/11/27 00:13:18;;;;;;;5.20;3.40;;;4.20;99.90;;;;;;5035794;28;20057;-74
2021/11/27 00:15:46;;;;;;;4.60;3.65;;;4.10;99.90;;;;;;5035434;28;20485;-74
2021/11/27 00:18:13;;;;;;;3.85;3.00;;;4.10;99.90;;;;;;5035810;28;20021;-74
2021/11/27 00:20:42;;;;;;;4.43;3.88;;;4.00;99.90;;;;;;5035515;28;20464;-74
2021/11/27 00:23:08;;;;;;;4.95;3.25;;;3.90;99.90;;;;;;5035096;28;20052;-74
2021/11/27 00:25:34;;;;;;;5.30;4.00;;;3.90;99.90;;;;;;5035545;28;20116;-74
2021/11/27 00:28:00;;;;;;;4.68;3.38;;;4.00;99.90;;;;;;5035236;28;20068;-74
2021/11/27 00:30:28;;;;;;;4.38;3.28;;;4.00;99.90;;;;;;5035061;28;20445;-74
2021/11/27 00:32:54;;;;;;;4.03;3.13;;;3.90;99.90;;;;;;5035111;28;20106;-74
2021/11/27 00:35:20;;;;;;;3.95;3.55;;;4.10;99.90;;;;;;5035023;28;20497;-75
2021/11/27 00:37:47;;;;;;;6.60;3.33;;;4.00;99.90;;;;;;5040720;28;20052;-74
2021/11/27 00:40:14;;;;;;;5.18;3.38;;;4.10;99.90;;;;;;5037618;28;20484;-74
2021/11/27 00:42:40;;;;;;;3.95;3.08;;;4.00;99.90;;;;;;5034874;28;20138;-74
2021/11/27 00:45:11;;;;;;;4.20;3.00;;;4.00;99.90;;;;;;5034936;28;20030;-74
2021/11/27 00:47:41;;;;;;;3.88;3.47;;;4.00;99.90;;;;;;5034988;28;20029;-74
2021/11/27 00:50:08;;;;;;;4.68;3.35;;;4.10;99.90;;;;;;5034769;28;20071;-74
2021/11/27 00:52:34;;;;;;;3.63;3.22;;;4.00;99.90;;;;;;5035530;28;20026;-73
2021/11/27 00:55:00;;;;;;;3.65;3.28;;;4.00;99.90;;;;;;5034907;28;20026;-74
2021/11/27 00:57:26;;;;;;;4.38;3.33;;;4.00;99.90;;;;;;5035214;28;20025;-74
2021/11/27 00:59:51;;;;;;;4.72;3.67;;;4.00;99.90;;;;;;5035989;28;20554;-73
2021/11/27 01:02:17;;;;;;;7.25;4.07;;;4.00;99.90;;;;;;5035014;28;20393;-73
2021/11/27 01:04:43;;;;;;;4.45;3.28;;;4.10;99.90;;;;;;5040530;28;20091;-74
2021/11/27 01:07:09;;;;;;;4.57;3.63;;;4.10;99.90;;;;;;5037276;28;20499;-73
2021/11/27 01:09:36;;;;;;;5.65;3.80;;;4.00;99.90;;;;;;5039338;28;20076;-73
2021/11/27 01:12:02;;;;;;;3.60;3.13;;;4.00;99.90;;;;;;5035589;28;20021;-74
2021/11/27 01:14:29;;;;;;;4.95;3.63;;;4.00;99.90;;;;;;5036757;28;20453;-74
2021/11/27 01:17:00;;;;;;;4.45;4.05;;;4.10;99.90;;;;;;5034908;28;20030;-74
2021/11/27 01:19:26;;;;;;;4.38;3.47;;;4.00;99.90;;;;;;5036051;28;20029;-74
2021/11/27 01:21:59;;;;;;;5.25;3.88;;;4.00;99.90;;;;;;5036061;28;20037;-73
2021/11/27 01:24:26;;;;;;;4.88;4.00;;;4.00;99.90;;;;;;5034736;28;20087;-72
2021/11/27 01:26:54;;;;;;;4.47;4.07;;;4.00;99.90;;;;;;5035141;28;20033;-73
2021/11/27 01:29:20;;;;;;;3.67;3.38;;;4.00;99.90;;;;;;5034159;28;20381;-73
2021/11/27 01:31:46;;;;;;;5.03;3.67;;;4.10;99.90;;;;;;5032755;28;20029;-74
2021/11/27 01:34:12;;;;;;;5.72;3.42;;;4.20;99.90;;;;;;5034501;28;20022;-74
2021/11/27 01:36:39;;;;;;;5.00;3.78;;;4.20;99.90;;;;;;5034284;28;20096;-74
2021/11/27 01:39:05;;;;;;;6.05;4.20;;;4.20;99.90;;;;;;5047129;28;20040;-74
2021/11/27 01:41:32;;;;;;;5.00;3.97;;;4.10;99.90;;;;;;5039556;28;20025;-73
2021/11/27 01:43:58;;;;;;;5.05;4.25;;;4.20;99.90;;;;;;5033324;28;20025;-74
2021/11/27 01:46:23;;;;;;;4.82;3.78;;;4.10;99.90;;;;;;5034324;28;20639;-74
2021/11/27 01:48:49;;;;;;;5.25;4.07;;;4.10;99.90;;;;;;5033885;28;20021;-73
2021/11/27 01:51:17;;;;;;;4.60;4.03;;;4.20;99.90;;;;;;5032472;28;20030;-73
2021/11/27 01:53:46;;;;;;;5.13;4.30;;;4.20;99.90;;;;;;5033805;28;20029;-73
2021/11/27 01:56:16;;;;;;;5.20;4.32;;;4.20;99.90;;;;;;5033742;28;20033;-74
2021/11/27 01:58:42;;;;;;;4.72;4.05;;;4.20;99.90;;;;;;5033723;28;20147;-74
2021/11/27 02:01:13;;;;;;;5.13;4.15;;;4.20;99.90;;;;;;5033427;28;20481;-74
2021/11/27 02:03:39;;;;;;;4.50;3.78;;;4.20;99.90;;;;;;5034015;28;20034;-73
2021/11/27 02:06:07;;;;;;;4.85;3.80;;;4.20;99.90;;;;;;5033932;28;20041;-73
2021/11/27 02:08:33;;;;;;;5.60;3.83;;;4.20;99.90;;;;;;5032434;28;20064;-74
2021/11/27 02:11:00;;;;;;;4.00;3.60;;;4.20;99.90;;;;;;5034436;28;20029;-74
2021/11/27 02:13:25;;;;;;;5.05;4.00;;;4.20;99.90;;;;;;5033535;28;20053;-75
2021/11/27 02:15:51;;;;;;;4.53;3.83;;;4.20;99.90;;;;;;5033462;28;20052;-74
2021/11/27 02:18:17;;;;;;;4.60;4.00;;;4.10;99.90;;;;;;5032815;28;20104;-73
2021/11/27 02:21:00;;;;;;;4.47;3.63;;;4.20;99.90;;;;;;5033396;28;20060;-73
2021/11/27 02:23:28;;;;;;;4.32;3.67;;;4.20;99.90;;;;;;5033276;28;20017;-74
2021/11/27 02:25:53;;;;;;;4.60;3.70;;;4.10;99.90;;;;;;5032950;28;20095;-73
2021/11/27 02:28:19;;;;;;;4.82;3.85;;;4.10;99.90;;;;;;5031746;28;20030;-74
2021/11/27 02:30:45;;;;;;;5.57;4.18;;;4.00;99.90;;;;;;5032759;28;20473;-73
2021/11/27 02:33:10;;;;;;;4.85;3.63;;;4.10;99.90;;;;;;5033212;28;20365;-74
2021/11/27 02:35:36;;;;;;;4.00;3.60;;;4.10;99.90;;;;;;5033270;28;20029;-73
2021/11/27 02:38:02;;;;;;;3.60;3.08;;;4.10;99.90;;;;;;5033020;28;20029;-73
2021/11/27 02:40:28;;;;;;;4.88;3.63;;;4.00;99.90;;;;;;5032791;28;20026;-74
2021/11/27 02:42:54;;;;;;;3.75;2.97;;;4.00;99.90;;;;;;5031440;28;20029;-75
2021/11/27 02:45:20;;;;;;;4.82;3.97;;;4.10;99.90;;;;;;5033983;28;20025;-74
2021/11/27 02:47:45;;;;;;;4.15;3.75;;;4.00;99.90;;;;;;5036973;28;20044;-73
2021/11/27 02:50:14;;;;;;;3.30;2.92;;;4.00;99.90;;;;;;5033360;28;20037;-73
2021/11/27 02:52:41;;;;;;;4.38;3.50;;;4.10;99.90;;;;;;5031698;28;20401;-73
2021/11/27 02:55:07;;;;;;;3.80;3.15;;;4.10;99.90;;;;;;5033175;28;20044;-73
2021/11/27 02:57:33;;;;;;;3.42;3.10;;;4.00;99.90;;;;;;5032716;28;20025;-73
2021/11/27 03:00:01;;;;;;;4.00;3.60;;;4.00;99.90;;;;;;5032216;28;20025;-74
2021/11/27 03:02:26;;;;;;;4.35;3.35;;;4.00;99.90;;;;;;5032472;28;20029;-73
2021/11/27 03:04:53;;;;;;;5.25;3.75;;;4.00;99.90;;;;;;5032363;28;20025;-73
2021/11/27 03:07:19;;;;;;;4.72;3.30;;;4.00;99.90;;;;;;5032094;28;20029;-74
2021/11/27 03:09:45;;;;;;;5.50;3.53;;;4.00;99.90;;;;;;5032051;28;20030;-74
2021/11/27 03:12:10;;;;;;;4.20;3.28;;;4.10;99.90;;;;;;5032368;28;20029;-74
2021/11/27 03:14:36;;;;;;;5.97;3.67;;;4.20;99.90;;;;;;5031022;28;20388;-74
2021/11/27 03:17:02;;;;;;;3.55;2.70;;;4.00;99.90;;;;;;5032270;28;20026;-75
2021/11/27 03:19:30;;;;;;;6.80;3.75;;;4.00;99.90;;;;;;5032621;28;20037;-74
2021/11/27 03:21:56;;;;;;;4.05;3.38;;;4.00;99.90;;;;;;5032504;28;20041;-74
2021/11/27 03:24:22;;;;;;;4.18;3.78;;;4.00;99.90;;;;;;5032193;28;20439;-74
2021/11/27 03:26:48;;;;;;;4.22;3.83;;;4.00;99.90;;;;;;5030751;28;20028;-73
2021/11/27 03:29:13;;;;;;;4.32;3.53;;;3.90;99.90;;;;;;5032195;28;20026;-73
2021/11/27 03:31:39;;;;;;;3.97;3.58;;;3.90;99.90;;;;;;5032299;28;20388;-73
2021/11/27 03:34:05;;;;;;;4.10;3.28;;;4.00;99.90;;;;;;5030901;28;20477;-74
2021/11/27 03:36:30;;;;;;;4.40;4.00;;;4.00;99.90;;;;;;5032078;28;20025;-75
2021/11/27 03:38:56;;;;;;;4.15;3.05;;;4.00;99.90;;;;;;5032150;28;20022;-75
2021/11/27 03:41:21;;;;;;;3.83;3.42;;;4.00;99.90;;;;;;5032052;28;20029;-74
2021/11/27 03:43:47;;;;;;;4.57;3.63;;;4.00;99.90;;;;;;5037758;28;20117;-74
2021/11/27 03:46:13;;;;;;;4.32;3.00;;;4.10;99.90;;;;;;5042066;28;20542;-73
2021/11/27 03:48:42;;;;;;;4.15;3.33;;;4.10;99.90;;;;;;5037125;28;20071;-73
2021/11/27 03:51:13;;;;;;;5.57;3.33;;;4.10;99.90;;;;;;5031498;28;20029;-74
2021/11/27 03:53:39;;;;;;;;;;;4.10;99.90;;;;;;5032843;28;20030;-74
2021/11/27 03:56:08;;;;;;;4.50;3.08;;;4.00;99.90;;;;;;5031992;28;19913;-74
2021/11/27 03:58:34;;;;;;;4.68;3.13;;;4.10;99.90;;;;;;5032055;28;20022;-74
2021/11/27 04:01:01;;;;;;;3.33;2.97;;;4.00;99.90;;;;;;5032169;28;20026;-74
2021/11/27 04:03:28;;;;;;;3.45;2.88;;;4.00;99.90;;;;;;5033293;28;20041;-74
2021/11/27 04:05:56;;;;;;;4.72;3.33;;;4.00;99.90;;;;;;5034051;28;20105;-74
2021/11/27 04:08:22;;;;;;;3.00;2.58;;;4.00;99.90;;;;;;5032591;28;20416;-74
2021/11/27 04:10:50;;;;;;;3.50;2.70;;;3.90;99.90;;;;;;5032522;28;20301;-73
2021/11/27 04:13:16;;;;;;;5.20;3.30;;;4.00;99.90;;;;;;5032215;28;20064;-74
2021/11/27 04:15:42;;;;;;;4.55;2.90;;;3.90;99.90;;;;;;5032156;28;20022;-74
2021/11/27 04:18:08;;;;;;;3.28;2.78;;;3.90;99.90;;;;;;5031883;28;20069;-73
2021/11/27 04:20:34;;;;;;;5.35;2.65;;;3.90;99.90;;;;;;5064215;22;20112;-78
2021/11/27 04:23:00;;;;;;;3.00;2.70;;;4.00;99.90;;;;;;5055913;28;20017;-78
2021/11/27 04:25:27;;;;;;;3.55;2.88;;;3.90;99.90;;;;;;5055797;28;20048;-78
2021/11/27 04:27:52;;;;;;;3.20;2.50;;;4.00;99.90;;;;;;5053591;28;20025;-78
2021/11/27 04:30:21;;;;;;;2.67;2.03;;;4.00;99.90;;;;;;5052030;28;20052;-79
2021/11/27 04:32:48;;;;;;;4.13;2.88;;;4.00;99.90;;;;;;5053554;28;20021;-78
2021/11/27 04:35:15;;;;;;;2.80;2.47;;;3.90;99.90;;;;;;5051849;28;20085;-77
2021/11/27 04:37:41;;;;;;;3.35;2.40;;;3.90;99.90;;;;;;5050199;28;20036;-77
2021/11/27 04:40:07;;;;;;;4.82;2.33;;;3.90;99.90;;;;;;5053611;28;20051;-77
2021/11/27 04:42:34;;;;;;;2.53;2.25;;;3.90;99.90;;;;;;5052431;28;20025;-77
2021/11/27 04:45:01;;;;;;;4.70;2.45;;;3.90;99.90;;;;;;5048536;28;20025;-77
2021/11/27 04:47:26;;;;;;;2.55;1.90;;;4.00;99.90;;;;;;5052453;28;20026;-78
2021/11/27 04:49:52;;;;;;;3.92;1.92;;;3.90;99.90;;;;;;5057654;28;20029;-79
2021/11/27 04:52:18;;;;;;;3.47;1.42;;;4.00;99.90;;;;;;5059883;28;20048;-79
2021/11/27 04:54:43;;;;;;;2.20;1.50;;;4.00;99.90;;;;;;5059800;28;20017;-77
2021/11/27 04:57:10;;;;;;;2.30;1.60;;;4.00;99.90;;;;;;5058621;28;20081;-78
2021/11/27 04:59:36;;;;;;;2.53;1.77;;;4.10;99.90;;;;;;5058251;28;20018;-78
2021/11/27 05:02:02;;;;;;;2.22;1.77;;;4.20;99.90;;;;;;5056944;28;20052;-78
2021/11/27 05:04:29;;;;;;;2.47;1.52;;;4.10;99.90;;;;;;5056317;28;20029;-78
2021/11/27 05:06:55;;;;;;;2.67;1.92;;;4.00;99.90;;;;;;5056942;28;20025;-78
2021/11/27 05:09:21;;;;;;;4.10;1.48;;;4.00;99.90;;;;;;5053392;28;20214;-78
2021/11/27 05:11:46;;;;;;;1.88;1.35;;;4.00;99.90;;;;;;5049234;28;20043;-79
2021/11/27 05:14:13;;;;;;;1.40;1.30;;;4.00;99.90;;;;;;5048198;28;20025;-80
2021/11/27 05:16:39;;;;;;;1.80;1.27;;;4.00;99.90;;;;;;5046226;28;20063;-78
2021/11/27 05:19:05;;;;;;;2.47;1.10;;;4.00;99.90;;;;;;5044295;28;20072;-78
2021/11/27 05:21:31;;;;;;;2.63;1.27;;;4.00;99.90;;;;;;5045484;28;20054;-79
2021/11/27 05:23:56;;;;;;;1.70;1.25;;;4.00;99.90;;;;;;5047142;28;20085;-79
2021/11/27 05:26:22;;;;;;;2.03;1.42;;;4.10;99.90;;;;;;5059441;28;20029;-79
2021/11/27 05:28:49;;;;;;;1.17;0.98;;;4.10;99.90;;;;;;5056691;28;20071;-78
2021/11/27 05:31:16;;;;;;;1.85;1.23;;;4.20;99.90;;;;;;5055439;28;20033;-79
2021/11/27 05:36:17;;;;;;;1.15;0.95;;;4.20;99.90;;;;;;5052039;28;20034;-78
2021/11/27 05:38:45;;;;;;;1.98;1.48;;;4.20;99.90;;;;;;5049745;28;20033;-79
2021/11/27 05:41:10;;;;;;;1.40;1.20;;;4.20;99.90;;;;;;5046838;28;20389;-79
2021/11/27 05:43:36;;;;;;;1.20;0.98;;;4.20;99.90;;;;;;5046551;28;20028;-79
2021/11/27 05:46:02;;;;;;;1.30;1.00;;;4.20;99.90;;;;;;5044251;28;20104;-79
2021/11/27 05:48:28;;;;;;;1.70;1.10;;;4.20;99.90;;;;;;5045521;28;20060;-77
2021/11/27 05:50:53;;;;;;;1.05;0.93;;;4.20;99.90;;;;;;5045306;28;20034;-78
2021/11/27 05:53:19;;;;;;;1.77;1.20;;;4.10;99.90;;;;;;5048612;28;20057;-79
2021/11/27 05:55:47;;;;;;;1.05;0.85;;;4.20;99.90;;;;;;5047693;28;20084;-79
2021/11/27 05:58:17;;;;;;;1.98;0.90;;;4.20;99.90;;;;;;5043251;28;20028;-78
2021/11/27 06:00:43;;;;;;;1.40;1.02;;;4.20;99.90;;;;;;5047287;28;20022;-79
2021/11/27 06:03:09;;;;;;;2.20;1.08;;;4.20;99.90;;;;;;5045968;28;20056;-78
2021/11/27 06:05:34;;;;;;;1.63;1.10;;;4.10;99.90;;;;;;5047982;28;20026;-79
2021/11/27 06:08:00;;;;;;;1.60;1.40;;;4.20;99.90;;;;;;5048894;28;20123;-78
2021/11/27 06:10:27;;;;;;;2.50;1.00;;;4.10;99.90;;;;;;5048211;28;20053;-79
2021/11/27 06:12:53;;;;;;;1.20;1.10;;;4.10;99.90;;;;;;5049575;28;20075;-79
2021/11/27 06:15:18;;;;;;;0.95;0.90;;;4.10;99.90;;;;;;5052100;28;20025;-79
2021/11/27 06:17:44;;;;;;;1.83;0.98;;;4.10;99.90;;;;;;5050359;28;20028;-78
2021/11/27 06:20:10;;;;;;;1.77;1.40;;;4.10;99.90;;;;;;5047383;28;20033;-78
2021/11/27 06:22:36;;;;;;;1.45;1.20;;;4.00;99.90;;;;;;5052401;28;20039;-78
2021/11/27 06:25:02;;;;;;;1.27;0.90;;;4.10;99.90;;;;;;5048236;28;20021;-78
2021/11/27 06:27:27;;;;;;;1.38;1.10;;;4.10;99.90;;;;;;5043792;28;20048;-78
2021/11/27 06:29:53;;;;;;;2.28;2.08;;;4.10;99.90;;;;;;5042381;28;20033;-78
2021/11/27 06:32:23;;;;;;;1.42;1.10;;;4.10;99.90;;;;;;5043501;28;20105;-78
2021/11/27 06:34:51;;;;;;;1.08;0.93;;;4.00;99.90;;;;;;5046625;28;20089;-78
2021/11/27 06:37:18;;;;;;;1.85;1.05;;;4.10;99.90;;;;;;5044860;28;20017;-78
2021/11/27 06:39:43;;;;;;;1.98;1.77;;;4.10;99.90;;;;;;5043654;28;20022;-78
2021/11/27 06:42:09;;;;;;;2.05;1.63;;;4.10;99.90;;;;;;5047647;28;20029;-77
2021/11/27 06:44:35;;;;;;;3.42;1.45;;;4.00;99.90;;;;;;5048654;28;20017;-77
2021/11/27 06:47:00;;;;;;;1.27;1.13;;;4.00;99.90;;;;;;5047681;28;20052;-77
2021/11/27 06:49:26;;;;;;;1.67;1.40;;;4.00;99.90;;;;;;5048933;28;20028;-79
2021/11/27 06:51:52;;;;;;;3.88;1.90;;;4.00;99.90;;;;;;5050150;28;20567;-78
2021/11/27 06:54:17;;;;;;;2.30;1.50;;;4.00;99.90;;;;;;5050343;28;20053;-78
2021/11/27 06:56:43;;;;;;;1.92;1.65;;;4.10;99.90;;;;;;5049969;28;20048;-77
2021/11/27 06:59:09;;;;;;;1.40;1.30;;;4.10;99.90;;;;;;5045816;28;20036;-79
2021/11/27 07:01:34;;;;;;;2.05;1.27;;;4.00;99.90;;;;;;5045296;28;20041;-79
2021/11/27 07:04:00;;;;;;;1.40;1.20;;;4.10;99.90;;;;;;5047267;28;20056;-78
2021/11/27 07:06:26;;;;;;;1.10;1.00;;;4.10;99.90;;;;;;5049235;28;20030;-78
2021/11/27 07:08:52;;;;;;;1.13;1.00;;;4.20;99.90;;;;;;5046692;28;20036;-79
2021/11/27 07:11:17;;;;;;;4.03;1.30;;;4.30;99.90;;;;;;5048619;28;20033;-77
2021/11/27 07:13:43;;;;;;;0.75;0.70;;;4.20;99.90;;;;;;5050574;28;20026;-78
2021/11/27 07:16:09;;;;;;;1.15;0.93;;;4.20;99.90;;;;;;5048414;28;20022;-77
2021/11/27 07:18:34;;;;;;;1.20;1.10;;;4.30;99.90;;;;;;5050220;28;20028;-78
2021/11/27 07:21:00;;;;;;;1.98;1.40;;;4.30;99.90;;;;;;5049431;28;20041;-78
2021/11/27 07:23:25;;;;;;;1.65;1.00;;;4.30;99.90;;;;;;5047797;28;20061;-79
2021/11/27 07:25:51;;;;;;;1.00;0.90;;;4.40;99.90;;;;;;5044977;28;20038;-79
2021/11/27 07:28:17;;;;;;;0.88;0.82;;;4.30;99.90;;;;;;5044494;28;20033;-79
2021/11/27 07:30:43;;;;;;;2.72;1.10;;;4.40;99.90;;;;;;5039528;28;20075;-78
2021/11/27 07:33:08;;;;;;;1.10;0.90;;;4.40;99.90;;;;;;5046890;28;20049;-77
2021/11/27 07:35:34;;;;;;;1.33;1.23;;;4.40;99.90;;;;;;5055759;28;20205;-79
2021/11/27 07:38:00;;;;;;;1.90;1.35;;;4.50;99.90;;;;;;5055777;28;20013;-78
2021/11/27 07:40:26;;;;;;;3.33;1.77;;;4.40;99.90;;;;;;5053877;28;20025;-77
2021/11/27 07:42:52;;;;;;;2.38;1.13;;;4.40;99.90;;;;;;5048440;28;20025;-80
2021/11/27 07:45:19;;;;;;;1.77;1.27;;;4.50;99.90;;;;;;5044467;28;20025;-78
2021/11/27 07:47:44;;;;;;;1.58;1.20;;;4.50;99.90;;;;;;5044120;28;20035;-79
2021/11/27 07:50:10;;;;;;;1.27;1.17;;;4.70;99.90;;;;;;5053099;28;20034;-79
2021/11/27 07:52:36;;;;;;;1.10;1.00;;;4.70;99.90;;;;;;5056717;28;20041;-78
2021/11/27 07:55:03;;;;;;;1.40;1.20;;;4.70;99.90;;;;;;5056902;28;20020;-78
2021/11/27 07:57:28;;;;;;;1.40;1.25;;;4.70;99.90;;;;;;5052407;28;20037;-78
2021/11/27 07:59:54;;;;;;;1.95;1.63;;;4.70;99.90;;;;;;5054134;28;20017;-79
2021/11/27 08:02:20;;;;;;;1.70;1.30;;;4.80;99.90;;;;;;5051034;28;20025;-79
2021/11/27 08:04:45;;;;;;;2.88;2.08;;;4.60;99.90;;;;;;5047034;28;20021;-79
2021/11/27 08:07:11;;;;;;;4.10;2.30;;;4.60;99.90;;;;;;5049593;28;20029;-78
2021/11/27 08:09:36;;;;;;;2.03;1.63;;;4.60;99.90;;;;;;5051149;28;20028;-78
2021/11/27 08:12:02;;;;;;;1.30;1.20;;;4.50;99.90;;;;;;5058538;28;20028;-78
2021/11/27 08:14:31;;;;;;;3.67;1.13;;;4.60;99.90;;;;;;5059016;28;20025;-79
2021/11/27 08:16:59;;;;;;;1.65;1.55;;;4.60;99.90;;;;;;5050478;28;20025;-79
2021/11/27 08:19:26;;;;;;;1.85;1.27;;;4.70;99.90;;;;;;5048040;28;20045;-78
2021/11/27 08:21:52;;;;;;;2.05;1.85;;;4.70;99.90;;;;;;5050579;28;20025;-79
2021/11/27 08:24:17;;;;;;;3.00;1.80;;;5.00;99.90;;;;;;5049376;28;20021;-78
2021/11/27 08:26:43;;;;;;;1.80;1.60;;;5.00;99.90;;;;;;5044142;28;20464;-80
2021/11/27 08:29:08;;;;;;;2.22;1.60;;;5.00;99.90;;;;;;5050673;28;20022;-80
2021/11/27 08:31:34;;;;;;;1.38;1.27;;;5.20;99.90;;;;;;5046429;28;20067;-78
2021/11/27 08:34:00;;;;;;;1.88;1.65;;;5.50;99.90;;;;;;5046371;28;20017;-79
2021/11/27 08:36:25;;;;;;;3.00;1.55;;;5.60;99.90;;;;;;5050790;28;20076;-80
2021/11/27 08:38:51;;;;;;;1.58;1.25;;;5.50;99.90;;;;;;5045326;28;20048;-79
2021/11/27 08:41:17;;;;;;;1.73;1.10;;;5.50;99.90;;;;;;5050876;28;20454;-79
2021/11/27 08:43:42;;;;;;;1.52;1.30;;;5.60;99.90;;;;;;5049776;28;20033;-77
2021/11/27 08:46:08;;;;;;;3.20;1.95;;;5.50;99.90;;;;;;5050564;28;20052;-79
2021/11/27 08:48:37;;;;;;;1.63;1.25;;;5.60;99.90;;;;;;5047918;28;20022;-79
2021/11/27 08:51:13;;;;;;;1.58;1.30;;;5.70;99.90;;;;;;5050680;28;20029;-79
2021/11/27 08:53:39;;;;;;;1.85;1.50;;;5.70;99.90;;;;;;5032535;28;20025;-78
2021/11/27 08:56:07;;;;;;;2.25;1.60;;;5.80;99.90;;;;;;5050740;28;20026;-79
2021/11/27 08:58:36;;;;;;;2.67;1.90;;;5.80;99.90;;;;;;5050514;28;20032;-79
2021/11/27 09:01:02;;;;;;;1.80;1.10;;;5.90;99.90;;;;;;5045203;28;20052;-79
2021/11/27 09:03:28;;;;;;;1.77;0.80;;;5.90;99.90;;;;;;5042511;28;20527;-79
2021/11/27 09:05:54;;;;;;;2.00;1.27;;;6.00;99.90;;;;;;5043385;28;20022;-79
2021/11/27 09:08:20;;;;;;;1.92;1.05;;;6.00;99.90;;;;;;5044278;28;20022;-80
2021/11/27 09:10:47;;;;;;;1.27;0.80;;;6.00;99.90;;;;;;5045728;28;20018;-79
2021/11/27 09:13:14;;;;;;;3.05;0.85;;;6.10;99.90;;;;;;5049048;28;20013;-80
2021/11/27 09:15:40;;;;;;;1.48;0.88;;;6.10;99.90;;;;;;5052456;28;20104;-80
2021/11/27 09:18:09;;;;;;;1.27;0.90;;;6.00;99.90;;;;;;5057156;28;20021;-79
2021/11/27 09:20:35;;;;;;;2.40;0.85;;;6.10;99.90;;;;;;5057969;28;20056;-79
2021/11/27 09:23:01;;;;;;;3.25;2.15;;;6.10;99.90;;;;;;5058569;28;20053;-79
2021/11/27 09:25:29;;;;;;;1.85;1.20;;;6.20;99.90;;;;;;5058438;28;20116;-79
2021/11/27 09:27:55;;;;;;;1.13;1.02;;;6.30;99.90;;;;;;5057983;28;20017;-80
2021/11/27 09:30:22;;;;;;;1.00;0.90;;;6.50;99.90;;;;;;5057711;28;20045;-78
2021/11/27 09:32:47;;;;;;;1.05;0.95;;;6.60;99.90;;;;;;5058118;28;20014;-79
2021/11/27 09:35:13;;;;;;;1.52;1.00;;;6.60;99.90;;;;;;5057556;28;20048;-80
2021/11/27 09:37:40;;;;;;;1.63;1.10;;;6.70;99.90;;;;;;5055674;28;20033;-80
2021/11/27 09:40:07;;;;;;;1.40;0.95;;;6.80;99.90;;;;;;5052968;28;20041;-78
2021/11/27 09:42:34;;;;;;;2.15;1.90;;;6.80;99.90;;;;;;5043238;28;20024;-78
2021/11/27 09:45:01;;;;;;;1.23;1.02;;;6.80;99.90;;;;;;5044155;28;20017;-79
2021/11/27 09:47:28;;;;;;;2.13;0.90;;;6.80;99.90;;;;;;5048655;28;20033;-78
2021/11/27 09:49:56;;;;;;;1.63;1.05;;;6.70;99.90;;;;;;5044936;28;20491;-80
2021/11/27 09:52:22;;;;;;;0.75;0.70;;;6.60;99.90;;;;;;5044793;28;20022;-80
2021/11/27 09:54:49;;;;;;;1.40;1.30;;;6.70;99.90;;;;;;5043105;28;20032;-79
2021/11/27 09:57:15;;;;;;;3.20;0.75;;;6.50;99.90;;;;;;5043046;28;20048;-79
2021/11/27 09:59:45;;;;;;;1.23;0.75;;;6.50;99.90;;;;;;5046808;28;20022;-79
2021/11/27 10:02:13;;;;;;;2.30;0.67;;;6.50;99.90;;;;;;5043650;28;20037;-79
2021/11/27 10:04:42;;;;;;;2.25;1.13;;;6.40;99.90;;;;;;5047379;28;20267;-80
2021/11/27 10:07:13;;;;;;;1.45;0.80;;;6.40;99.90;;;;;;5044750;28;20029;-80
2021/11/27 10:09:39;;;;;;;1.55;0.68;;;6.50;99.90;;;;;;5043595;28;20021;-79
2021/11/27 10:12:07;;;;;;;2.13;1.08;;;6.50;99.90;;;;;;5041094;28;20026;-80
2021/11/27 10:14:35;;;;;;;1.33;0.65;;;6.60;99.90;;;;;;5041795;28;20081;-80
2021/11/27 10:17:05;;;;;;;1.13;0.70;;;6.80;99.90;;;;;;5041926;28;20037;-79
2021/11/27 10:19:58;;;;;;;2.17;0.75;;;7.00;99.90;;;;;;5066205;22;20120;-73
2021/11/27 10:22:47;;;;;;;1.73;0.63;;;7.10;99.90;;;;;;5039967;28;20466;-74
2021/11/27 10:25:23;;;;;;;1.35;0.80;;;7.30;99.90;;;;;;5037745;28;20473;-74
2021/11/27 10:27:49;;;;;;;1.48;0.73;;;7.40;99.90;;;;;;5036718;28;20025;-74
2021/11/27 10:30:15;;;;;;;2.58;1.00;;;7.50;99.90;;;;;;5039197;28;20029;-75
2021/11/27 10:32:43;;;;;;;0.75;0.68;;;7.70;99.90;;;;;;5036799;28;20028;-75
2021/11/27 10:35:12;;;;;;;2.63;0.70;;;7.80;99.90;;;;;;5036310;28;20026;-75
2021/11/27 10:37:49;;;;;;;1.98;1.00;;;7.70;99.90;;;;;;5036251;28;20021;-75
2021/11/27 10:40:24;;;;;;;2.90;0.75;;;7.70;99.90;;;;;;5035977;28;20032;-75
2021/11/27 10:42:52;;;;;;;1.30;0.90;;;7.90;99.90;;;;;;5040106;28;20057;-75
2021/11/27 10:45:21;;;;;;;2.47;1.30;;;7.70;99.90;;;;;;5038590;28;20021;-76
2021/11/27 10:47:49;;;;;;;1.65;1.17;;;7.60;99.90;;;;;;5018886;28;20029;-74
2021/11/27 10:50:19;;;;;;;1.85;0.85;;;7.90;99.90;;;;;;5034857;28;20488;-74
2021/11/27 10:52:47;;;;;;;1.42;0.90;;;7.70;99.90;;;;;;5033386;28;20060;-75
2021/11/27 10:55:23;;;;;;;1.67;0.90;;;7.50;99.90;;;;;;5034334;28;20029;-74
2021/11/27 10:57:52;;;;;;;2.10;0.88;;;7.40;99.90;;;;;;5035376;28;20025;-74
2021/11/27 11:00:41;;;;;;;1.60;0.82;;;7.60;99.90;;;;;;5036824;28;20505;-75
2021/11/27 11:03:25;;;;;;;1.70;1.02;;;7.60;99.90;;;;;;5035476;28;20104;-74
2021/11/27 11:05:51;;;;;;;1.30;0.90;;;7.20;99.90;;;;;;5035528;28;20029;-74
2021/11/27 11:08:32;;;;;;;2.08;0.95;;;7.30;99.90;;;;;;5034753;28;20021;-74
2021/11/27 11:10:59;;;;;;;1.90;0.80;;;7.10;99.90;;;;;;5034243;28;20123;-74
2021/11/27 11:13:30;;;;;;;4.03;1.17;;;7.00;99.90;;;;;;5034615;28;20029;-75
2021/11/27 11:15:57;;;;;;;1.77;1.00;;;7.00;99.90;;;;;;5037500;28;20024;-74
2021/11/27 11:18:25;;;;;;;2.25;1.20;;;7.00;99.90;;;;;;5037769;28;20025;-75
2021/11/27 11:20:56;;;;;;;2.03;1.20;;;7.00;99.90;;;;;;5036714;28;20029;-74
2021/11/27 11:23:29;;;;;;;4.55;0.85;;;7.00;99.90;;;;;;5035911;28;20025;-73
2021/11/27 11:26:02;;;;;;;1.80;0.63;;;7.00;99.90;;;;;;5039111;28;20032;-74
2021/11/27 11:28:36;;;;;;;0.65;0.65;;;7.00;99.90;;;;;;5045382;28;20086;-75
2021/11/27 11:31:05;;;;;;;1.92;1.00;;;7.00;99.90;;;;;;5049568;28;20517;-74
2021/11/27 11:33:33;;;;;;;1.10;0.80;;;7.00;99.90;;;;;;5048743;28;20017;-74
2021/11/27 11:36:01;;;;;;;1.20;0.77;;;7.00;99.90;;;;;;5045586;28;20037;-73
2021/11/27 11:38:27;;;;;;;0.50;0.50;;;7.00;99.90;;;;;;5048049;28;20095;-74
2021/11/27 11:40:53;;;;;;;2.58;2.03;;;6.90;99.90;;;;;;5048738;28;20025;-75
2021/11/27 11:43:19;;;;;;;0.65;0.65;;;6.90;99.90;;;;;;5049990;28;20096;-74
2021/11/27 11:45:45;;;;;;;1.63;0.80;;;7.00;99.90;;;;;;5048201;28;20022;-75
2021/11/27 11:48:11;;;;;;;0.93;0.75;;;7.00;99.90;;;;;;5042033;28;20036;-74
2021/11/27 11:50:42;;;;;;;1.00;0.90;;;7.00;99.90;;;;;;5038236;28;20072;-73
2021/11/27 11:53:09;;;;;;;;;;;6.90;99.90;;;;;;5037829;28;20056;-74
2021/11/27 11:55:37;;;;;;;6.50;2.53;;;7.00;99.90;;;;;;5038026;28;19905;-76
2021/11/27 11:58:03;;;;;;;3.45;1.33;;;7.10;99.90;;;;;;5037537;28;20017;-74
2021/11/27 12:00:38;;;;;;;1.65;0.80;;;7.20;99.90;;;;;;5041263;28;20049;-74
2021/11/27 12:03:08;;;;;;;2.35;1.25;;;7.20;99.90;;;;;;5036816;28;20424;-74
2021/11/27 12:05:35;;;;;;;3.28;0.82;;;7.10;99.90;;;;;;5037115;28;20029;-75
2021/11/27 12:08:04;;;;;;;1.60;0.77;;;6.50;99.90;;;;;;5037613;28;20393;-75
2021/11/27 12:10:43;;;;;;;1.30;0.90;;;6.00;99.90;;;;;;5037305;28;20030;-75
2021/11/27 12:13:09;;;;;;;1.33;0.70;;;5.80;99.90;;;;;;5035986;28;20028;-74
2021/11/27 12:15:40;;;;;;;1.08;0.70;;;5.50;99.90;;;;;;5037346;28;20381;-75
2021/11/27 12:18:07;;;;;;;0.95;0.52;;;5.30;99.90;;;;;;5037778;28;20072;-75
2021/11/27 12:20:40;;;;;;;1.40;1.23;;;5.40;99.90;;;;;;5036712;28;20029;-75
2021/11/27 12:23:31;;;;;;;0.60;0.60;;;5.30;99.90;;;;;;5036654;28;20029;-74
2021/11/27 12:26:09;;;;;;;0.75;0.40;;;5.40;99.90;;;;;;5036457;28;20469;-74
2021/11/27 12:28:41;;;;;;;1.83;0.52;;;5.40;99.90;;;;;;5035208;28;20079;-73
2021/11/27 12:31:08;;;;;;;1.65;0.63;;;5.40;99.90;;;;;;5036268;28;20033;-75
2021/11/27 12:33:53;;;;;;;1.73;0.57;;;5.50;99.90;;;;;;5037126;28;20101;-73
2021/11/27 12:36:33;;;;;;;1.83;1.15;;;5.50;99.90;;;;;;5036562;28;20033;-76
2021/11/27 12:39:15;;;;;;;0.60;0.60;;;5.50;99.90;;;;;;5037889;28;20481;-74
2021/11/27 12:41:46;;;;;;;1.02;0.95;;;5.50;99.90;;;;;;5037121;28;20029;-75
2021/11/27 12:44:23;;;;;;;1.67;0.88;;;5.50;99.90;;;;;;5035970;28;20036;-75
2021/11/27 12:46:57;;;;;;;1.55;0.85;;;5.50;99.90;;;;;;5035057;28;20194;-74
2021/11/27 12:49:32;;;;;;;1.13;0.70;;;5.40;99.90;;;;;;5037393;28;20029;-75
2021/11/27 12:52:19;;;;;;;1.67;0.70;;;5.30;99.90;;;;;;5035735;28;20025;-75
2021/11/27 12:54:52;;;;;;;2.88;0.80;;;5.40;99.90;;;;;;5036799;28;20029;-75
2021/11/27 12:57:20;;;;;;;3.67;0.98;;;5.50;99.90;;;;;;5036145;28;20047;-75
2021/11/27 13:00:01;;;;;;;1.17;0.70;;;5.60;99.90;;;;;;5034785;28;20084;-75
2021/11/27 13:02:27;;;;;;;1.10;0.80;;;5.40;99.90;;;;;;5036655;28;20503;-75